createdAt,value
2023-04-25T00:00:23.272Z,11.20
2023-04-25T00:02:49.865Z,11.12
2023-04-25T00:05:17.323Z,11.10
2023-04-25T00:07:43.796Z,11.11
2023-04-25T00:10:11.949Z,11.12
2023-04-25T00:12:38.760Z,11.14
2023-04-25T00:15:05.416Z,11.11
2023-04-25T00:17:32.445Z,11.06
2023-04-25T00:19:59.345Z,11.10
2023-04-25T00:22:25.673Z,11.04
2023-04-25T00:24:54.241Z,11.04
2023-04-25T00:27:20.735Z,11.07
2023-04-25T00:29:47.079Z,11.13
2023-04-25T00:32:13.513Z,11.07
2023-04-25T00:34:39.918Z,11.10
2023-04-25T00:37:06.950Z,11.10
2023-04-25T00:39:33.337Z,11.03
2023-04-25T00:41:59.756Z,11.06
2023-04-25T00:44:27.965Z,11.04
2023-04-25T00:46:54.858Z,11.07
2023-04-25T00:49:21.225Z,11.04
2023-04-25T00:51:47.625Z,11.05
2023-04-25T00:54:13.972Z,11.04
2023-04-25T00:56:40.354Z,11.00
2023-04-25T00:59:06.721Z,11.03
2023-04-25T01:01:33.306Z,11.01
2023-04-25T01:03:59.908Z,11.03
2023-04-25T01:06:26.307Z,11.08
2023-04-25T01:08:52.826Z,11.11
2023-04-25T01:11:19.329Z,11.10
2023-04-25T01:13:45.684Z,11.08
2023-04-25T01:16:12.303Z,11.10
2023-04-25T01:18:41.519Z,11.05
2023-04-25T01:21:08.858Z,11.07
2023-04-25T01:23:35.211Z,11.07
2023-04-25T01:26:01.763Z,11.08
2023-04-25T01:28:28.383Z,11.07
2023-04-25T01:30:54.729Z,11.07
2023-04-25T01:33:22.034Z,10.99
2023-04-25T01:35:48.494Z,11.04
2023-04-25T01:38:15.597Z,10.96
2023-04-25T01:40:42.274Z,10.97
2023-04-25T01:43:11.969Z,11.01
2023-04-25T01:45:42.004Z,10.96
2023-04-25T01:48:11.790Z,10.93
2023-04-25T01:50:39.057Z,10.97
2023-04-25T01:53:05.776Z,11.00
2023-04-25T01:55:32.206Z,10.96
2023-04-25T01:57:59.450Z,10.95
2023-04-25T02:00:25.808Z,10.95
2023-04-25T02:02:54.427Z,10.92
2023-04-25T02:05:21.768Z,10.95
2023-04-25T02:07:48.292Z,10.94
2023-04-25T02:10:14.653Z,10.97
2023-04-25T02:12:41.134Z,10.99
2023-04-25T02:15:07.734Z,10.98
2023-04-25T02:17:34.598Z,11.00
2023-04-25T02:20:01.040Z,10.98
2023-04-25T02:22:27.924Z,10.94
2023-04-25T02:24:54.702Z,10.92
2023-04-25T02:27:21.059Z,10.90
2023-04-25T02:29:47.447Z,10.80
2023-04-25T02:32:13.812Z,10.85
2023-04-25T02:34:40.450Z,10.82
2023-04-25T02:37:06.829Z,10.85
2023-04-25T02:39:33.178Z,10.81
2023-04-25T02:41:59.736Z,10.80
2023-04-25T02:44:26.103Z,10.73
2023-04-25T02:46:52.852Z,10.77
2023-04-25T02:49:19.240Z,10.77
2023-04-25T02:51:45.677Z,10.71
2023-04-25T02:54:12.063Z,10.70
2023-04-25T02:56:38.534Z,10.73
2023-04-25T02:59:04.928Z,10.68
2023-04-25T03:01:31.441Z,10.71
2023-04-25T03:03:57.804Z,10.69
2023-04-25T03:06:24.204Z,10.68
2023-04-25T03:08:50.895Z,10.65
2023-04-25T03:11:17.243Z,10.64
2023-04-25T03:13:43.679Z,10.65
2023-04-25T03:16:10.145Z,10.66
2023-04-25T03:18:36.504Z,10.67
2023-04-25T03:21:03.049Z,10.68
2023-04-25T03:23:29.455Z,10.66
2023-04-25T03:25:55.832Z,10.65
2023-04-25T03:28:22.693Z,10.64
2023-04-25T03:30:49.073Z,10.58
2023-04-25T03:33:15.537Z,10.58
2023-04-25T03:35:42.066Z,10.61
2023-04-25T03:38:08.459Z,10.62
2023-04-25T03:40:34.788Z,10.59
2023-04-25T03:43:01.124Z,10.56
2023-04-25T03:45:27.563Z,10.54
2023-04-25T03:47:53.950Z,10.47
2023-04-25T03:50:20.968Z,10.12
2023-04-25T03:52:47.425Z,10.04
2023-04-25T03:55:13.790Z,9.88
2023-04-25T03:57:40.220Z,9.70
2023-04-25T04:00:07.695Z,9.62
2023-04-25T04:02:35.884Z,9.27
2023-04-25T04:05:02.646Z,9.30
2023-04-25T04:07:29.239Z,9.23
2023-04-25T04:09:55.671Z,9.11
2023-04-25T04:12:22.094Z,9.01
2023-04-25T04:14:48.574Z,9.01
2023-04-25T04:17:14.902Z,9.00
2023-04-25T04:19:42.109Z,9.00
2023-04-25T04:22:08.561Z,9.01
2023-04-25T04:24:36.332Z,9.00
2023-04-25T04:27:02.679Z,8.92
2023-04-25T04:29:29.063Z,8.93
2023-04-25T04:31:55.626Z,8.83
2023-04-25T04:34:23.089Z,8.87
2023-04-25T04:36:49.602Z,8.89
2023-04-25T04:39:16.087Z,8.91
2023-04-25T04:41:43.851Z,8.92
2023-04-25T04:44:11.369Z,8.94
2023-04-25T04:46:42.952Z,8.89
2023-04-25T04:49:09.960Z,8.93
2023-04-25T04:51:36.580Z,8.84
2023-04-25T04:54:03.583Z,8.89
2023-04-25T04:56:31.924Z,8.91
2023-04-25T04:58:58.636Z,8.95
2023-04-25T05:01:25.426Z,8.92
2023-04-25T05:03:55.299Z,8.93
2023-04-25T05:06:21.934Z,8.97
2023-04-25T05:08:48.328Z,8.89
2023-04-25T05:11:14.745Z,8.82
2023-04-25T05:13:41.162Z,8.91
2023-04-25T05:16:07.532Z,9.03
2023-04-25T05:18:35.984Z,8.87
2023-04-25T05:21:02.373Z,8.83
2023-04-25T05:23:29.763Z,8.88
2023-04-25T05:25:57.351Z,8.83
2023-04-25T05:28:23.731Z,8.85
2023-04-25T05:30:50.054Z,8.87
2023-04-25T05:33:19.237Z,8.76
2023-04-25T05:35:45.887Z,8.73
2023-04-25T05:38:12.238Z,8.71
2023-04-25T05:40:41.182Z,8.69
2023-04-25T05:43:08.229Z,8.74
2023-04-25T05:45:34.580Z,8.65
2023-04-25T05:48:01.004Z,8.68
2023-04-25T05:50:27.479Z,8.62
2023-04-25T05:52:53.808Z,8.66
2023-04-25T05:55:20.175Z,8.56
2023-04-25T05:57:46.593Z,8.50
2023-04-25T06:00:13.787Z,8.49
2023-04-25T06:02:40.436Z,8.51
2023-04-25T06:05:07.471Z,8.49
2023-04-25T06:07:34.081Z,8.42
2023-04-25T06:10:02.177Z,8.41
2023-04-25T06:12:28.549Z,8.32
2023-04-25T06:14:55.306Z,8.25
2023-04-25T06:17:21.696Z,8.30
2023-04-25T06:19:48.108Z,8.24
2023-04-25T06:22:17.155Z,8.18
2023-04-25T06:24:43.460Z,8.23
2023-04-25T06:27:09.833Z,8.26
2023-04-25T06:29:36.217Z,8.32
2023-04-25T06:32:02.622Z,8.29
2023-04-25T06:34:29.084Z,8.23
2023-04-25T06:36:55.461Z,8.26
2023-04-25T06:39:24.194Z,8.32
2023-04-25T06:41:50.772Z,8.21
2023-04-25T06:44:17.269Z,8.19
2023-04-25T06:46:43.662Z,8.17
2023-04-25T06:49:10.630Z,8.22
2023-04-25T06:51:36.964Z,8.27
2023-04-25T06:54:05.160Z,8.37
2023-04-25T06:56:31.998Z,8.37
2023-04-25T06:58:58.410Z,8.38
2023-04-25T07:01:24.893Z,8.50
2023-04-25T07:03:51.953Z,8.56
2023-04-25T07:06:18.583Z,8.66
2023-04-25T07:08:44.910Z,8.64
2023-04-25T07:11:11.734Z,8.66
2023-04-25T07:13:38.209Z,8.71
2023-04-25T07:16:04.874Z,8.67
2023-04-25T07:18:31.292Z,8.76
2023-04-25T07:20:59.941Z,8.69
2023-04-25T07:23:26.364Z,8.61
2023-04-25T07:25:52.766Z,8.55
2023-04-25T07:28:19.712Z,8.57
2023-04-25T07:30:46.221Z,8.55
2023-04-25T07:33:12.699Z,8.60
2023-04-25T07:35:39.384Z,8.54
2023-04-25T07:38:07.603Z,8.50
2023-04-25T07:40:35.324Z,8.44
2023-04-25T07:43:01.674Z,8.44
2023-04-25T07:45:28.129Z,8.44
2023-04-25T07:47:54.562Z,8.54
2023-04-25T07:50:23.491Z,8.55
2023-04-25T07:52:49.865Z,8.60
2023-04-25T07:55:16.567Z,8.64
2023-04-25T07:57:42.916Z,8.64
2023-04-25T08:00:13.719Z,8.73
2023-04-25T08:02:41.440Z,8.76
2023-04-25T08:05:09.540Z,8.88
2023-04-25T08:07:36.213Z,8.90
2023-04-25T08:10:02.606Z,8.92
2023-04-25T08:12:28.967Z,8.95
2023-04-25T08:14:55.442Z,9.08
2023-04-25T08:17:21.972Z,9.14
2023-04-25T08:19:48.432Z,9.25
2023-04-25T08:22:15.774Z,9.31
2023-04-25T08:24:42.558Z,9.42
2023-04-25T08:27:08.956Z,9.57
2023-04-25T08:29:38.171Z,9.61
2023-04-25T08:32:04.625Z,9.52
2023-04-25T08:34:31.031Z,9.65
2023-04-25T08:36:57.421Z,9.65
2023-04-25T08:39:25.911Z,9.74
2023-04-25T08:41:56.100Z,9.78
2023-04-25T08:44:23.009Z,9.84
2023-04-25T08:46:51.522Z,9.87
2023-04-25T08:49:18.066Z,10.02
2023-04-25T08:51:47.486Z,9.97
2023-04-25T08:56:46.789Z,10.17
2023-04-25T08:59:13.350Z,10.31
2023-04-25T09:01:39.913Z,10.33
2023-04-25T09:04:06.516Z,10.35
2023-04-25T09:06:33.237Z,10.42
2023-04-25T09:09:04.247Z,10.53
2023-04-25T09:11:30.837Z,10.58
2023-04-25T09:14:15.739Z,10.66
2023-04-25T09:16:57.411Z,10.89
2023-04-25T09:19:38.234Z,10.97
2023-04-25T09:22:06.719Z,10.84
2023-04-25T09:24:40.039Z,10.59
2023-04-25T09:27:13.559Z,10.46
2023-04-25T09:29:40.799Z,10.43
2023-04-25T09:32:23.569Z,10.25
2023-04-25T09:34:51.237Z,10.06
2023-04-25T09:37:23.740Z,10.04
2023-04-25T09:39:51.054Z,10.08
2023-04-25T09:42:17.750Z,10.11
2023-04-25T09:44:47.366Z,10.13
2023-04-25T09:47:14.520Z,10.13
2023-04-25T09:49:42.664Z,10.02
2023-04-25T09:52:09.340Z,10.11
2023-04-25T09:54:35.819Z,10.20
2023-04-25T09:57:13.682Z,10.03
2023-04-25T09:59:41.311Z,10.07
2023-04-25T10:02:09.668Z,10.10
2023-04-25T10:04:36.636Z,10.15
2023-04-25T10:07:04.333Z,10.22
2023-04-25T10:09:33.336Z,10.29
2023-04-25T10:11:59.745Z,10.40
2023-04-25T10:14:26.571Z,10.43
2023-04-25T10:16:54.680Z,10.52
2023-04-25T10:19:21.579Z,10.41
2023-04-25T10:21:49.853Z,10.57
2023-04-25T10:24:16.438Z,10.68
2023-04-25T10:26:42.846Z,10.65
2023-04-25T10:29:09.505Z,10.70
2023-04-25T10:31:38.693Z,10.65
2023-04-25T10:34:06.398Z,10.71
2023-04-25T10:36:33.047Z,10.51
2023-04-25T10:39:01.277Z,10.45
2023-04-25T10:41:27.684Z,10.34
2023-04-25T10:44:00.734Z,10.32
2023-04-25T10:46:28.436Z,10.33
2023-04-25T10:49:01.298Z,10.33
2023-04-25T10:51:40.100Z,10.31
2023-04-25T10:54:18.285Z,10.40
2023-04-25T10:56:45.564Z,10.44
2023-04-25T10:59:12.813Z,10.43
2023-04-25T11:01:43.042Z,10.46
2023-04-25T11:04:28.799Z,10.40
2023-04-25T11:07:24.554Z,10.39
2023-04-25T11:09:51.147Z,10.39
2023-04-25T11:12:18.550Z,10.39
2023-04-25T11:14:45.013Z,10.49
2023-04-25T11:17:12.169Z,10.53
2023-04-25T11:19:38.628Z,10.55
2023-04-25T11:22:04.960Z,10.61
2023-04-25T11:24:32.009Z,10.66
2023-04-25T11:27:03.321Z,10.64
2023-04-25T11:29:30.324Z,10.55
2023-04-25T11:31:59.194Z,10.54
2023-04-25T11:34:26.259Z,10.52
2023-04-25T11:36:56.181Z,10.58
2023-04-25T11:39:22.951Z,10.59
2023-04-25T11:41:49.294Z,10.69
2023-04-25T11:44:19.116Z,10.74
2023-04-25T11:46:47.778Z,10.69
2023-04-25T11:49:14.819Z,10.70
2023-04-25T11:51:49.134Z,10.73
2023-04-25T11:54:16.411Z,10.77
2023-04-25T11:56:43.409Z,10.76
2023-04-25T11:59:10.610Z,10.71
2023-04-25T12:01:38.882Z,10.52
2023-04-25T12:04:15.609Z,10.43
2023-04-25T12:06:42.662Z,10.36
2023-04-25T12:09:10.094Z,10.32
2023-04-25T12:12:08.687Z,10.37
2023-04-25T12:14:36.052Z,10.45
2023-04-25T12:17:03.842Z,10.52
2023-04-25T12:19:46.104Z,10.52
2023-04-25T12:22:22.790Z,10.51
2023-04-25T12:24:49.256Z,10.66
2023-04-25T12:27:17.247Z,10.77
2023-04-25T12:29:51.596Z,10.91
2023-04-25T12:32:18.821Z,10.91
2023-04-25T12:34:45.943Z,10.85
2023-04-25T12:37:12.771Z,10.73
2023-04-25T12:39:42.930Z,10.61
2023-04-25T12:42:12.368Z,10.56
2023-04-25T12:44:39.119Z,10.47
2023-04-25T12:47:16.952Z,10.48
2023-04-25T12:49:43.405Z,10.52
2023-04-25T12:52:09.767Z,10.42
2023-04-25T12:54:36.344Z,10.49
2023-04-25T12:57:03.989Z,10.49
2023-04-25T12:59:30.577Z,10.56
2023-04-25T13:01:57.007Z,10.52
2023-04-25T13:04:23.524Z,10.46
2023-04-25T13:06:50.004Z,10.53
2023-04-25T13:09:16.611Z,10.63
2023-04-25T13:11:43.185Z,10.59
2023-04-25T13:14:09.525Z,10.58
2023-04-25T13:16:36.130Z,10.61
2023-04-25T13:19:02.564Z,10.66
2023-04-25T13:21:31.903Z,10.73
2023-04-25T13:23:58.642Z,10.66
2023-04-25T13:26:25.071Z,10.60
2023-04-25T13:28:51.405Z,10.63
2023-04-25T13:31:19.128Z,10.65
2023-04-25T13:33:45.619Z,10.71
2023-04-25T13:36:13.092Z,10.70
2023-04-25T13:38:40.481Z,10.80
2023-04-25T13:41:08.278Z,10.84
2023-04-25T13:43:34.971Z,10.82
2023-04-25T13:46:01.391Z,10.88
2023-04-25T13:48:27.901Z,10.80
2023-04-25T13:50:54.326Z,10.94
2023-04-25T13:53:20.756Z,10.85
2023-04-25T13:55:47.105Z,10.97
2023-04-25T13:58:13.501Z,11.12
2023-04-25T14:00:40.562Z,11.35
2023-04-25T14:03:08.834Z,11.62
2023-04-25T14:05:39.081Z,11.51
2023-04-25T14:08:09.383Z,11.51
2023-04-25T14:10:36.071Z,11.58
2023-04-25T14:13:04.071Z,11.49
2023-04-25T14:15:31.777Z,11.43
2023-04-25T14:17:58.337Z,11.42
2023-04-25T14:20:24.994Z,11.31
2023-04-25T14:22:51.509Z,11.31
2023-04-25T14:25:17.880Z,10.94
2023-04-25T14:27:48.371Z,10.69
2023-04-25T14:30:14.832Z,10.74
2023-04-25T14:32:41.283Z,10.83
2023-04-25T14:35:08.208Z,10.50
2023-04-25T14:37:34.612Z,10.05
2023-04-25T14:40:00.935Z,9.75
2023-04-25T14:42:27.284Z,9.56
2023-04-25T14:44:53.706Z,9.41
2023-04-25T14:47:20.112Z,9.30
2023-04-25T14:49:52.103Z,9.36
2023-04-25T14:52:18.760Z,9.22
2023-04-25T14:54:45.233Z,9.16
2023-04-25T14:57:16.031Z,9.02
2023-04-25T14:59:42.591Z,8.91
2023-04-25T15:02:08.908Z,8.72
2023-04-25T15:04:35.777Z,8.76
2023-04-25T15:07:02.554Z,8.78
2023-04-25T15:09:29.748Z,8.60
2023-04-25T15:11:56.331Z,8.44
2023-04-25T15:14:23.888Z,8.41
2023-04-25T15:16:51.441Z,8.39
2023-04-25T15:19:17.910Z,8.41
2023-04-25T15:21:44.340Z,8.47
2023-04-25T15:24:12.950Z,8.51
2023-04-25T15:26:39.307Z,8.46
2023-04-25T15:29:06.835Z,8.41
2023-04-25T15:31:33.355Z,8.45
2023-04-25T15:33:59.816Z,8.48
2023-04-25T15:36:26.634Z,8.45
2023-04-25T15:38:52.995Z,8.37
2023-04-25T15:41:19.377Z,8.39
2023-04-25T15:43:46.988Z,8.34
2023-04-25T15:46:15.492Z,8.35
2023-04-25T15:48:41.880Z,8.36
2023-04-25T15:51:08.283Z,8.33
2023-04-25T15:53:34.697Z,8.26
2023-04-25T15:56:01.238Z,8.22
2023-04-25T15:58:27.779Z,8.25
2023-04-25T16:00:55.591Z,8.26
2023-04-25T16:03:22.417Z,8.14
2023-04-25T16:05:48.989Z,8.14
2023-04-25T16:08:15.399Z,8.21
2023-04-25T16:10:42.165Z,8.20
2023-04-25T16:13:08.572Z,8.21
2023-04-25T16:15:35.754Z,8.13
2023-04-25T16:18:02.326Z,8.11
2023-04-25T16:20:28.817Z,8.16
2023-04-25T16:22:55.522Z,8.05
2023-04-25T16:25:22.621Z,8.10
2023-04-25T16:27:48.989Z,8.06
2023-04-25T16:30:15.496Z,8.07
2023-04-25T16:32:44.088Z,8.13
2023-04-25T16:35:12.205Z,8.14
2023-04-25T16:37:38.636Z,8.13
2023-04-25T16:40:08.061Z,8.12
2023-04-25T16:42:34.436Z,8.00
2023-04-25T16:45:00.772Z,8.06
2023-04-25T16:47:27.164Z,8.10
2023-04-25T16:49:53.727Z,8.09
2023-04-25T16:52:22.016Z,7.98
2023-04-25T16:54:48.364Z,8.05
2023-04-25T16:57:14.829Z,8.07
2023-04-25T16:59:41.546Z,7.99
2023-04-25T17:02:08.557Z,8.02
2023-04-25T17:04:35.205Z,8.10
2023-04-25T17:07:01.760Z,7.99
2023-04-25T17:09:29.241Z,7.94
2023-04-25T17:11:58.379Z,7.92
2023-04-25T17:14:24.721Z,7.94
2023-04-25T17:16:51.169Z,7.97
2023-04-25T17:19:17.573Z,7.97
2023-04-25T17:21:44.140Z,7.98
2023-04-25T17:24:10.506Z,7.96
2023-04-25T17:26:37.598Z,7.95
2023-04-25T17:29:06.183Z,7.90
2023-04-25T17:31:32.857Z,7.88
2023-04-25T17:33:59.892Z,7.85
2023-04-25T17:36:26.311Z,7.86
2023-04-25T17:38:52.956Z,7.81
2023-04-25T17:41:20.891Z,7.82
2023-04-25T17:43:47.318Z,7.88
2023-04-25T17:46:13.948Z,7.91
2023-04-25T17:48:40.437Z,7.82
2023-04-25T17:51:07.512Z,7.76
2023-04-25T17:53:33.889Z,7.79
2023-04-25T17:56:00.282Z,7.69
2023-04-25T17:58:27.201Z,7.75
2023-04-25T18:00:53.556Z,7.75
2023-04-25T18:03:20.094Z,7.74
2023-04-25T18:05:46.584Z,7.68
2023-04-25T18:08:13.605Z,7.61
2023-04-25T18:10:40.449Z,7.63
2023-04-25T18:13:06.816Z,7.60
2023-04-25T18:15:34.377Z,7.61
2023-04-25T18:18:03.230Z,7.65
2023-04-25T18:20:29.620Z,7.64
2023-04-25T18:22:56.063Z,7.55
2023-04-25T18:25:22.516Z,7.47
2023-04-25T18:27:50.582Z,7.47
2023-04-25T18:30:16.964Z,7.46
2023-04-25T18:32:43.504Z,7.35
2023-04-25T18:35:10.242Z,7.30
2023-04-25T18:37:37.202Z,7.36
2023-04-25T18:40:07.120Z,7.29
2023-04-25T18:42:33.507Z,7.21
2023-04-25T18:44:59.890Z,7.16
2023-04-25T18:47:26.329Z,7.19
2023-04-25T18:49:52.703Z,7.04
2023-04-25T18:52:20.391Z,7.00
2023-04-25T18:54:47.161Z,7.01
2023-04-25T18:57:16.100Z,7.02
2023-04-25T18:59:45.490Z,6.97
2023-04-25T19:02:14.782Z,6.95
2023-04-25T19:04:41.353Z,6.95
2023-04-25T19:07:09.349Z,6.94
2023-04-25T19:09:36.297Z,6.82
2023-04-25T19:12:03.784Z,6.82
2023-04-25T19:14:31.755Z,6.80
2023-04-25T19:16:59.597Z,6.81
2023-04-25T19:19:27.269Z,6.72
2023-04-25T19:21:53.677Z,6.69
2023-04-25T19:24:20.042Z,6.70
2023-04-25T19:26:46.564Z,6.69
2023-04-25T19:29:14.542Z,6.61
2023-04-25T19:31:44.712Z,6.55
2023-04-25T19:34:11.597Z,6.51
2023-04-25T19:36:38.566Z,6.52
2023-04-25T19:39:07.240Z,6.60
2023-04-25T19:41:36.344Z,6.54
2023-04-25T19:44:04.643Z,6.47
2023-04-25T19:46:32.047Z,6.47
2023-04-25T19:48:58.509Z,6.46
2023-04-25T19:51:24.932Z,6.35
2023-04-25T19:53:53.265Z,6.33
2023-04-25T19:56:19.813Z,6.31
2023-04-25T19:58:49.100Z,6.29
2023-04-25T20:01:15.927Z,6.29
2023-04-25T20:03:44.760Z,6.29
2023-04-25T20:06:11.353Z,6.21
2023-04-25T20:08:37.818Z,6.21
2023-04-25T20:11:04.205Z,6.17
2023-04-25T20:13:30.816Z,6.19
2023-04-25T20:15:57.360Z,6.08
2023-04-25T20:18:24.329Z,6.08
2023-04-25T20:20:51.814Z,6.07
2023-04-25T20:23:18.233Z,6.14
2023-04-25T20:25:44.582Z,6.12
2023-04-25T20:28:11.081Z,6.09
2023-04-25T20:30:37.776Z,6.10
2023-04-25T20:33:07.734Z,6.06
2023-04-25T20:35:36.575Z,6.06
2023-04-25T20:38:02.975Z,5.94
2023-04-25T20:40:29.344Z,5.87
2023-04-25T20:42:56.184Z,5.87
2023-04-25T20:45:24.382Z,5.89
2023-04-25T20:47:50.994Z,5.87
2023-04-25T20:50:17.472Z,5.85
2023-04-25T20:52:44.430Z,5.86
2023-04-25T20:55:11.993Z,5.83
2023-04-25T20:57:38.373Z,5.83
2023-04-25T21:00:13.954Z,5.81
2023-04-25T21:02:40.545Z,5.80
2023-04-25T21:05:07.106Z,5.80
2023-04-25T21:07:33.487Z,5.68
2023-04-25T21:09:59.813Z,5.60
2023-04-25T21:12:26.191Z,5.62
2023-04-25T21:14:52.582Z,5.61
2023-04-25T21:17:18.949Z,5.65
2023-04-25T21:19:45.325Z,5.69
2023-04-25T21:22:11.721Z,5.48
2023-04-25T21:24:38.255Z,5.52
2023-04-25T21:27:04.579Z,5.51
2023-04-25T21:29:31.056Z,5.43
2023-04-25T21:31:57.414Z,5.46
2023-04-25T21:34:23.859Z,5.40
2023-04-25T21:36:50.226Z,5.46
2023-04-25T21:39:16.572Z,5.47
2023-04-25T21:41:44.313Z,5.49
2023-04-25T21:44:12.520Z,5.41
2023-04-25T21:46:38.916Z,5.35
2023-04-25T21:49:05.295Z,5.36
2023-04-25T21:51:32.183Z,5.28
2023-04-25T21:54:01.112Z,5.29
2023-04-25T21:56:27.513Z,5.20
2023-04-25T21:58:54.088Z,5.22
2023-04-25T22:01:20.780Z,5.18
2023-04-25T22:03:47.439Z,5.20
2023-04-25T22:06:13.975Z,5.21
2023-04-25T22:08:40.287Z,5.25
2023-04-25T22:11:08.031Z,5.21
2023-04-25T22:13:34.782Z,5.22
2023-04-25T22:16:01.204Z,5.23
2023-04-25T22:18:27.552Z,5.23
2023-04-25T22:20:54.582Z,5.24
2023-04-25T22:23:20.946Z,5.23
2023-04-25T22:25:47.394Z,5.25
2023-04-25T22:28:14.768Z,5.33
2023-04-25T22:30:41.102Z,5.32
2023-04-25T22:33:07.702Z,5.36
2023-04-25T22:35:34.160Z,5.36
2023-04-25T22:38:00.506Z,5.40
2023-04-25T22:40:27.182Z,5.39
2023-04-25T22:42:53.640Z,5.43
2023-04-25T22:45:20.056Z,5.38
2023-04-25T22:47:46.550Z,5.38
2023-04-25T22:50:13.891Z,5.39
2023-04-25T22:52:40.501Z,5.39
2023-04-25T22:55:07.027Z,5.38
2023-04-25T22:57:33.438Z,5.38
2023-04-25T22:59:59.853Z,5.38
2023-04-25T23:02:27.335Z,5.37
2023-04-25T23:04:54.840Z,5.37
2023-04-25T23:07:21.292Z,5.38
2023-04-25T23:09:47.695Z,5.37
2023-04-25T23:12:14.089Z,5.38
2023-04-25T23:14:40.397Z,5.37
2023-04-25T23:17:06.916Z,5.37
2023-04-25T23:19:34.408Z,5.35
2023-04-25T23:22:00.890Z,5.33
2023-04-25T23:24:27.235Z,5.33
2023-04-25T23:26:53.632Z,5.27
2023-04-25T23:29:19.950Z,5.25
2023-04-25T23:31:46.296Z,5.27
2023-04-25T23:34:12.838Z,5.20
2023-04-25T23:36:39.206Z,5.19
2023-04-25T23:39:08.199Z,5.18
2023-04-25T23:41:34.638Z,5.17
2023-04-25T23:44:01.010Z,5.14
2023-04-25T23:46:28.868Z,5.17
2023-04-25T23:48:55.411Z,5.13
2023-04-25T23:51:21.786Z,5.09
2023-04-25T23:53:48.116Z,5.05
2023-04-25T23:56:14.476Z,5.02
2023-04-25T23:58:40.794Z,4.96
